Highgate, VT

12:14 AM EST on February 20, 2017 (GMT -0500)
Franklin County State | | Change Station

Elev 230 ft 44.94 °N, 73.10 °W | Updated 19 minutes ago

Overcast
Overcast
34 °F
Feels Like 29 °F
N
6
Wind Variable Wind from NNW

Today
High -- | Low -- °F
--% Chance of Precip.
Yesterday
High -- | Low -- °F
Precip. -- in
Pressure 30.03 in
Visibility 10.0 miles
Clouds Mostly Cloudy 3300 ft
Overcast 4000 ft
Windchill 29 °F
Dew Point 26 °F
Humidity 72%
Rainfall 0.00 in
Snow Depth Not available.
6:44 AM 5:27 PM
Last Quarter, 37% visible
METAR KFSO 200455Z AUTO 34005KT 10SM BKN033 OVC040 01/M03 A3003 RMK AO2 T00141031 400890014
Pressure 30.03 in
Visibility 10.0 miles
Clouds Mostly Cloudy 3300 ft
Overcast 4000 ft
Windchill 29 °F
Dew Point 26 °F
Humidity 72%
Rainfall 0.00 in
Snow Depth Not available.
6:44 AM 5:27 PM
Last Quarter, 37% visible
METAR KFSO 200455Z AUTO 34005KT 10SM BKN033 OVC040 01/M03 A3003 RMK AO2 T00141031 400890014

Get Your Daily Forecast Email!

Thanks for signing up!

Be on the lookout for a verification email in your inbox.

You'll start receiving the daily forecast at 8 AM.

×

10-Day Weather Forecast

Almanac

Astronomy

Feb. 20, 2017 Rise Set
Actual Time
Civil Twilight
Nautical Twilight
Astronomical Twilight
Moon
Length of Visible Light
Length of Day
Tomorrow will be .
, % of the Moon is Illuminated

Today's Extremes

State Highs State Lows

Community

WunderPhotos

Upload Photos

1,962,540 photos uploaded!

WunderBlog® & News

Nearby

Air Quality

  Air Quality AQ Index Pollutant
Not available.

Snow Depth

Station Depth Elevation

Earthquake Activity

City Distance Mag. Time & Date
Minimum magnitude displayed is 2.5.

Coastal Water Temperatures

Place Temperature

Stations

Nearby Weather Stations

Station Location Temp. Windchill Dew Point Humidity Wind Precip. Elev Updated Type
                   

Watches & Warnings

There are currently no watches in effect.